createdAt,value
2022-08-07T00:00:18.597Z,1.23
2022-08-07T00:02:46.140Z,1.10
2022-08-07T00:05:13.666Z,1.50
2022-08-07T00:07:41.700Z,1.35
2022-08-07T00:10:26.294Z,1.45
2022-08-07T00:13:00.558Z,1.42
2022-08-07T00:15:37.756Z,1.27
2022-08-07T00:18:24.160Z,1.50
2022-08-07T00:21:08.109Z,1.25
2022-08-07T00:23:52.506Z,1.50
2022-08-07T00:26:48.746Z,1.20
2022-08-07T00:29:07.011Z,1.20
2022-08-07T00:31:38.161Z,1.27
2022-08-07T00:34:09.404Z,1.50
2022-08-07T00:36:38.521Z,1.38
2022-08-07T00:39:12.752Z,1.33
2022-08-07T00:41:53.731Z,1.20
2022-08-07T00:44:28.976Z,1.05
2022-08-07T00:46:56.261Z,1.33
2022-08-07T00:49:24.959Z,1.00
2022-08-07T00:52:10.980Z,0.90
2022-08-07T00:54:40.780Z,0.90
2022-08-07T00:57:10.157Z,1.67
2022-08-07T00:59:40.289Z,1.15
2022-08-07T01:02:14.252Z,1.30
2022-08-07T01:04:58.387Z,1.13
2022-08-07T01:07:29.299Z,1.40
2022-08-07T01:10:06.803Z,1.38
2022-08-07T01:12:53.723Z,1.70
2022-08-07T01:15:35.912Z,1.30
2022-08-07T01:18:17.625Z,1.52
2022-08-07T01:23:35.730Z,1.05
2022-08-07T01:26:16.704Z,1.10
2022-08-07T01:28:50.259Z,1.40
2022-08-07T01:31:41.791Z,1.48
2022-08-07T01:34:15.099Z,1.45
2022-08-07T01:36:44.116Z,1.35
2022-08-07T01:39:17.501Z,1.73
2022-08-07T01:42:36.997Z,1.55
2022-08-07T01:44:47.917Z,1.20
2022-08-07T01:48:29.896Z,1.60
2022-08-07T01:50:05.395Z,1.58
2022-08-07T01:52:34.840Z,1.60
2022-08-07T01:55:03.963Z,1.23
2022-08-07T01:58:06.318Z,1.48
2022-08-07T02:00:31.129Z,1.13
2022-08-07T02:03:18.600Z,1.30
2022-08-07T02:05:59.306Z,1.33
2022-08-07T02:08:29.483Z,1.48
2022-08-07T02:10:59.585Z,1.10
2022-08-07T02:13:57.697Z,1.15
2022-08-07T02:16:28.569Z,1.40
2022-08-07T02:19:05.765Z,1.10
2022-08-07T02:21:57.076Z,1.45
2022-08-07T02:24:26.220Z,1.10
2022-08-07T02:27:02.662Z,1.05
2022-08-07T02:29:34.393Z,0.90
2022-08-07T02:32:05.551Z,1.20
2022-08-07T02:34:34.246Z,1.17
2022-08-07T02:37:08.244Z,1.13
2022-08-07T02:39:43.112Z,1.33
2022-08-07T02:42:32.724Z,1.73
2022-08-07T02:45:07.577Z,1.63
2022-08-07T02:47:52.539Z,1.45
2022-08-07T02:50:20.953Z,1.50
2022-08-07T02:53:07.164Z,1.95
2022-08-07T02:56:04.318Z,1.80
2022-08-07T02:58:33.913Z,1.55
2022-08-07T03:01:04.256Z,2.65
2022-08-07T03:03:49.459Z,1.52
2022-08-07T03:06:26.050Z,1.30
2022-08-07T03:09:07.581Z,1.65
2022-08-07T03:11:52.567Z,1.40
2022-08-07T03:14:31.233Z,1.27
2022-08-07T03:16:59.202Z,1.52
2022-08-07T03:19:28.908Z,1.55
2022-08-07T03:22:06.926Z,1.30
2022-08-07T03:24:35.040Z,1.83
2022-08-07T03:27:09.075Z,1.70
2022-08-07T03:29:50.968Z,1.52
2022-08-07T03:32:49.003Z,1.52
2022-08-07T03:35:26.934Z,1.10
2022-08-07T03:38:09.061Z,1.45
2022-08-07T03:40:44.283Z,1.52
2022-08-07T03:43:15.602Z,1.75
2022-08-07T03:45:48.961Z,1.45
2022-08-07T03:48:22.245Z,1.40
2022-08-07T03:50:55.893Z,1.40
2022-08-07T03:53:50.181Z,1.20
2022-08-07T03:56:32.852Z,1.10
2022-08-07T03:59:09.823Z,1.50
2022-08-07T04:01:45.564Z,1.33
2022-08-07T04:04:18.814Z,1.48
2022-08-07T04:06:51.625Z,1.38
2022-08-07T04:09:23.371Z,1.40
2022-08-07T04:12:28.232Z,1.58
2022-08-07T04:14:47.787Z,1.33
2022-08-07T04:17:21.301Z,1.40
2022-08-07T04:19:54.085Z,1.20
2022-08-07T04:22:27.510Z,1.40
2022-08-07T04:25:01.945Z,1.42
2022-08-07T04:27:36.189Z,1.10
2022-08-07T04:30:21.575Z,1.20
2022-08-07T04:33:11.420Z,1.25
2022-08-07T04:35:50.442Z,1.20
2022-08-07T04:38:25.011Z,1.20
2022-08-07T04:40:56.800Z,1.23
2022-08-07T04:44:13.170Z,1.30
2022-08-07T04:47:03.919Z,1.20
2022-08-07T04:49:57.887Z,1.30
2022-08-07T04:52:51.871Z,1.45
2022-08-07T04:58:12.004Z,1.63
2022-08-07T04:58:38.775Z,1.17
2022-08-07T05:01:30.905Z,0.98
2022-08-07T05:04:07.572Z,1.50
2022-08-07T05:06:51.638Z,1.20
2022-08-07T05:09:45.938Z,0.90
2022-08-07T05:12:26.538Z,0.98
2022-08-07T05:15:23.600Z,1.02
2022-08-07T05:18:06.201Z,0.82
2022-08-07T05:20:42.893Z,1.02
2022-08-07T05:23:16.363Z,0.80
2022-08-07T05:26:10.782Z,0.88
2022-08-07T05:28:40.489Z,1.10
2022-08-07T05:31:14.530Z,0.80
2022-08-07T05:33:51.364Z,1.20
2022-08-07T05:36:35.506Z,1.00
2022-08-07T05:40:14.377Z,1.08
2022-08-07T05:42:02.424Z,1.13
2022-08-07T05:44:35.285Z,0.90
2022-08-07T05:47:18.395Z,0.90
2022-08-07T05:52:29.864Z,0.70
2022-08-07T05:55:10.185Z,0.93
2022-08-07T05:57:42.410Z,1.33
2022-08-07T06:00:16.017Z,0.60
2022-08-07T06:02:52.359Z,0.60
2022-08-07T06:05:28.123Z,0.90
2022-08-07T06:08:14.949Z,0.70
2022-08-07T06:10:52.097Z,0.90
2022-08-07T06:14:10.795Z,0.90
2022-08-07T06:16:13.499Z,0.80
2022-08-07T06:18:43.449Z,0.98
2022-08-07T06:22:14.805Z,0.80
2022-08-07T06:24:39.163Z,1.08
2022-08-07T06:26:55.544Z,0.90
2022-08-07T06:29:27.878Z,1.00
2022-08-07T06:31:57.155Z,1.00
2022-08-07T06:34:29.770Z,1.10
2022-08-07T06:36:59.364Z,1.65
2022-08-07T06:40:15.632Z,1.35
2022-08-07T06:42:35.365Z,1.08
2022-08-07T06:45:26.097Z,1.20
2022-08-07T06:47:59.164Z,1.00
2022-08-07T06:50:48.359Z,1.40
2022-08-07T06:55:28.956Z,1.25
2022-08-07T06:56:16.175Z,1.40
2022-08-07T07:00:11.804Z,1.40
2022-08-07T07:01:44.079Z,1.13
2022-08-07T07:04:32.013Z,1.55
2022-08-07T07:07:02.377Z,1.30
2022-08-07T07:09:48.650Z,1.20
2022-08-07T07:12:33.589Z,1.48
2022-08-07T07:15:24.061Z,1.52
2022-08-07T07:18:00.285Z,1.17
2022-08-07T07:20:38.084Z,1.10
2022-08-07T07:24:10.937Z,1.00
2022-08-07T07:26:35.369Z,1.05
2022-08-07T07:29:56.933Z,1.25
2022-08-07T07:31:55.552Z,1.10
2022-08-07T07:34:31.181Z,1.30
2022-08-07T07:37:14.698Z,2.10
2022-08-07T07:39:55.329Z,1.30
2022-08-07T07:42:33.049Z,1.50
2022-08-07T07:45:05.613Z,2.15
2022-08-07T07:47:52.306Z,1.60
2022-08-07T07:50:34.756Z,1.73
2022-08-07T07:53:20.712Z,1.50
2022-08-07T07:58:29.573Z,1.40
2022-08-07T08:00:58.591Z,1.10
2022-08-07T08:04:06.444Z,1.15
2022-08-07T08:06:17.920Z,1.13
2022-08-07T08:08:48.300Z,1.45
2022-08-07T08:11:18.133Z,1.92
2022-08-07T08:14:03.778Z,1.27
2022-08-07T08:16:42.758Z,1.30
2022-08-07T08:20:15.902Z,1.35
2022-08-07T08:22:33.058Z,1.80
2022-08-07T08:25:25.439Z,1.38
2022-08-07T08:28:16.855Z,1.35
2022-08-07T08:30:58.378Z,2.40
2022-08-07T08:33:33.133Z,1.40
2022-08-07T08:36:02.099Z,1.83
2022-08-07T08:38:41.260Z,3.05
2022-08-07T08:41:17.441Z,2.15
2022-08-07T08:43:59.103Z,1.85
2022-08-07T08:47:04.186Z,1.30
2022-08-07T08:50:02.686Z,1.30
2022-08-07T08:52:40.865Z,1.45
2022-08-07T08:55:55.064Z,1.00
2022-08-07T08:58:28.536Z,1.48
2022-08-07T09:01:40.234Z,1.80
2022-08-07T09:04:26.118Z,1.27
2022-08-07T09:07:01.427Z,1.90
2022-08-07T09:12:36.800Z,1.75
2022-08-07T09:16:22.613Z,2.03
2022-08-07T09:18:22.592Z,1.90
2022-08-07T09:21:34.395Z,2.22
2022-08-07T09:24:55.077Z,1.55
2022-08-07T09:28:00.297Z,1.15
2022-08-07T09:30:54.595Z,1.08
2022-08-07T09:33:57.306Z,1.13
2022-08-07T09:36:36.905Z,1.20
2022-08-07T09:39:53.988Z,1.98
2022-08-07T09:42:35.383Z,1.42
2022-08-07T09:47:24.968Z,1.85
2022-08-07T09:48:55.896Z,1.85
2022-08-07T09:52:15.655Z,1.20
2022-08-07T09:54:45.337Z,1.30
2022-08-07T09:57:19.825Z,1.10
2022-08-07T10:00:09.353Z,0.88
2022-08-07T10:04:06.928Z,1.35
2022-08-07T10:06:10.495Z,0.70
2022-08-07T10:09:06.993Z,1.25
2022-08-07T10:12:18.164Z,1.60
2022-08-07T10:15:15.522Z,1.30
2022-08-07T10:18:26.636Z,2.13
2022-08-07T10:20:57.430Z,1.27
2022-08-07T10:24:06.018Z,1.60
2022-08-07T10:27:10.618Z,1.67
2022-08-07T10:30:07.077Z,1.08
2022-08-07T10:33:00.812Z,1.30
2022-08-07T10:35:53.615Z,1.10
2022-08-07T10:38:35.832Z,1.10
2022-08-07T10:41:51.609Z,1.33
2022-08-07T10:44:46.008Z,1.25
2022-08-07T10:47:54.397Z,1.02
2022-08-07T10:50:29.823Z,2.25
2022-08-07T10:53:26.209Z,1.70
2022-08-07T10:56:05.097Z,1.75
2022-08-07T10:58:52.013Z,1.00
2022-08-07T11:01:52.048Z,1.38
2022-08-07T11:04:51.336Z,2.75
2022-08-07T11:07:59.468Z,1.83
2022-08-07T11:10:32.744Z,1.60
2022-08-07T11:14:42.360Z,1.92
2022-08-07T11:16:07.220Z,1.52
2022-08-07T11:18:42.580Z,1.30
2022-08-07T11:21:24.850Z,1.30
2022-08-07T11:24:06.066Z,1.30
2022-08-07T11:26:51.369Z,1.20
2022-08-07T11:29:49.102Z,1.13
2022-08-07T11:32:44.395Z,0.77
2022-08-07T11:35:25.082Z,0.70
2022-08-07T11:37:58.462Z,0.73
2022-08-07T11:40:49.510Z,0.98
2022-08-07T11:43:29.836Z,1.15
2022-08-07T11:46:49.033Z,1.27
2022-08-07T11:50:18.621Z,1.00
2022-08-07T11:52:49.126Z,0.90
2022-08-07T11:56:09.719Z,1.13
2022-08-07T11:58:56.358Z,0.90
2022-08-07T12:01:58.814Z,1.13
2022-08-07T12:04:43.024Z,0.80
2022-08-07T12:07:38.677Z,0.85
2022-08-07T12:10:19.593Z,1.00
2022-08-07T12:13:19.031Z,0.70
2022-08-07T12:16:09.098Z,1.00
2022-08-07T12:19:35.718Z,0.80
2022-08-07T12:22:39.561Z,0.70
2022-08-07T12:26:06.139Z,1.10
2022-08-07T12:28:34.783Z,0.70
2022-08-07T12:31:17.258Z,1.05
2022-08-07T12:34:01.226Z,0.70
2022-08-07T12:36:32.868Z,0.90
2022-08-07T12:39:42.143Z,0.70
2022-08-07T12:41:56.198Z,0.93
2022-08-07T12:44:25.920Z,1.42
2022-08-07T12:47:31.070Z,0.82
2022-08-07T12:50:39.172Z,1.25
2022-08-07T12:54:02.831Z,0.80
2022-08-07T12:56:40.159Z,0.80
2022-08-07T13:01:41.847Z,0.65
2022-08-07T13:04:32.479Z,0.73
2022-08-07T13:08:18.288Z,0.70
2022-08-07T13:10:52.041Z,0.90
2022-08-07T13:13:50.177Z,0.70
2022-08-07T13:16:29.443Z,0.70
2022-08-07T13:19:46.220Z,0.70
2022-08-07T13:22:33.318Z,0.90
2022-08-07T13:25:03.124Z,0.50
2022-08-07T13:28:11.410Z,0.60
2022-08-07T13:30:41.446Z,0.75
2022-08-07T13:34:32.756Z,0.60
2022-08-07T13:36:49.097Z,0.60
2022-08-07T13:40:34.123Z,0.80
2022-08-07T13:42:35.222Z,0.65
2022-08-07T13:45:20.687Z,0.70
2022-08-07T13:48:06.538Z,0.70
2022-08-07T13:50:45.073Z,0.60
2022-08-07T13:53:59.390Z,0.40
2022-08-07T13:56:35.863Z,0.40
2022-08-07T13:59:13.574Z,0.40
2022-08-07T14:02:04.830Z,0.60
2022-08-07T14:04:38.945Z,0.50
2022-08-07T14:10:03.015Z,0.50
2022-08-07T14:12:55.756Z,0.35
2022-08-07T14:15:45.197Z,0.40
2022-08-07T14:22:01.285Z,0.50
2022-08-07T14:24:12.413Z,0.60
2022-08-07T14:26:50.423Z,0.30
2022-08-07T14:30:05.824Z,0.30
2022-08-07T14:32:13.204Z,0.40
2022-08-07T14:34:45.697Z,0.50
2022-08-07T14:37:16.904Z,0.60
2022-08-07T14:40:17.072Z,0.30
2022-08-07T14:42:59.817Z,0.50
2022-08-07T14:45:46.404Z,0.43
2022-08-07T14:48:27.251Z,0.40
2022-08-07T14:50:57.893Z,0.40
2022-08-07T14:54:09.498Z,0.30
2022-08-07T14:56:29.788Z,0.30
2022-08-07T14:59:02.098Z,1.25
2022-08-07T15:01:42.229Z,0.70
2022-08-07T15:04:12.728Z,0.60
2022-08-07T15:06:47.659Z,0.50
2022-08-07T15:09:58.367Z,0.60
2022-08-07T15:12:25.580Z,0.22
2022-08-07T15:15:08.341Z,0.30
2022-08-07T15:17:55.473Z,0.32
2022-08-07T15:23:22.279Z,0.40
2022-08-07T15:26:21.243Z,0.50
2022-08-07T15:28:59.650Z,0.45
2022-08-07T15:32:01.656Z,0.30
2022-08-07T15:34:37.719Z,0.30
2022-08-07T15:37:27.801Z,0.40
2022-08-07T15:40:01.120Z,0.38
2022-08-07T15:45:22.921Z,0.30
2022-08-07T15:48:01.915Z,0.20
2022-08-07T15:51:02.026Z,0.30
2022-08-07T15:53:48.599Z,0.30
2022-08-07T15:56:24.103Z,0.35
2022-08-07T15:58:57.974Z,0.30
2022-08-07T16:04:15.530Z,0.30
2022-08-07T16:06:54.532Z,0.30
2022-08-07T16:09:51.819Z,0.30
2022-08-07T16:13:05.354Z,0.30
2022-08-07T16:15:57.663Z,0.30
2022-08-07T16:18:50.127Z,0.20
2022-08-07T16:21:56.838Z,0.20
2022-08-07T16:24:35.555Z,0.20
2022-08-07T16:27:40.013Z,0.30
2022-08-07T16:30:30.217Z,0.30
2022-08-07T16:34:02.030Z,0.40
2022-08-07T16:36:00.643Z,0.30
2022-08-07T16:39:16.626Z,0.20
2022-08-07T16:42:01.942Z,0.30
2022-08-07T16:45:15.278Z,0.22
2022-08-07T16:47:56.525Z,0.20
2022-08-07T16:51:13.531Z,0.30
2022-08-07T16:54:06.038Z,0.20
2022-08-07T16:57:15.505Z,0.20
2022-08-07T16:59:51.727Z,0.10
2022-08-07T17:03:04.850Z,0.20
2022-08-07T17:06:19.930Z,0.30
2022-08-07T17:09:09.019Z,0.20
2022-08-07T17:12:04.578Z,0.20
2022-08-07T17:14:56.370Z,0.20
2022-08-07T17:17:52.636Z,0.40
2022-08-07T17:20:37.538Z,0.10
2022-08-07T17:23:23.116Z,0.20
2022-08-07T17:26:23.603Z,0.20
2022-08-07T17:30:14.217Z,0.20
2022-08-07T17:32:30.488Z,0.20
2022-08-07T17:35:50.459Z,0.22
2022-08-07T17:38:32.102Z,0.25
2022-08-07T17:42:01.943Z,0.22
2022-08-07T17:44:15.554Z,0.30
2022-08-07T17:47:04.624Z,0.25
2022-08-07T17:49:54.100Z,0.20
2022-08-07T17:52:30.767Z,0.20
2022-08-07T17:55:16.628Z,0.20
2022-08-07T17:58:30.292Z,0.10
2022-08-07T18:01:02.752Z,0.30
2022-08-07T18:04:06.793Z,0.20
2022-08-07T18:06:47.373Z,0.20
2022-08-07T18:10:05.165Z,0.20
2022-08-07T18:12:33.798Z,0.30
2022-08-07T18:15:22.940Z,0.30
2022-08-07T18:18:46.129Z,0.20
2022-08-07T18:21:10.404Z,0.38
2022-08-07T18:24:07.285Z,0.20
2022-08-07T18:26:57.777Z,0.20
2022-08-07T18:30:06.866Z,0.20
2022-08-07T18:32:48.877Z,0.20
2022-08-07T18:35:57.403Z,0.20
2022-08-07T18:38:55.823Z,0.20
2022-08-07T18:41:44.635Z,0.40
2022-08-07T18:45:40.086Z,0.30
2022-08-07T18:47:44.417Z,0.40
2022-08-07T18:50:43.841Z,0.40
2022-08-07T18:53:16.406Z,0.38
2022-08-07T18:56:06.897Z,0.30
2022-08-07T18:58:52.069Z,0.30
2022-08-07T19:02:20.054Z,0.30
2022-08-07T19:04:39.708Z,0.38
2022-08-07T19:07:22.097Z,0.30
2022-08-07T19:10:21.320Z,0.30
2022-08-07T19:13:10.070Z,0.32
2022-08-07T19:17:00.376Z,0.30
2022-08-07T19:19:31.783Z,0.28
2022-08-07T19:22:30.749Z,0.20
2022-08-07T19:25:05.783Z,0.20
2022-08-07T19:28:29.838Z,0.45
2022-08-07T19:31:03.119Z,0.30
2022-08-07T19:33:19.069Z,0.33
2022-08-07T19:36:01.870Z,0.22
2022-08-07T19:38:33.886Z,0.20
2022-08-07T19:41:02.761Z,0.20
2022-08-07T19:43:49.536Z,0.20
2022-08-07T19:46:29.358Z,0.25
2022-08-07T19:49:05.193Z,0.40
2022-08-07T19:51:52.393Z,0.22
2022-08-07T19:54:34.576Z,0.30
2022-08-07T19:58:00.064Z,0.40
2022-08-07T20:00:29.452Z,0.40
2022-08-07T20:03:35.513Z,0.30
2022-08-07T20:06:03.209Z,0.32
2022-08-07T20:08:34.090Z,0.20
2022-08-07T20:11:12.217Z,0.40
2022-08-07T20:13:49.743Z,0.30
2022-08-07T20:16:35.655Z,0.40
2022-08-07T20:19:10.929Z,0.30
2022-08-07T20:24:31.632Z,0.30
2022-08-07T20:27:02.481Z,0.30
2022-08-07T20:29:48.906Z,0.30
2022-08-07T20:32:40.329Z,0.30
2022-08-07T20:35:12.416Z,0.40
2022-08-07T20:37:58.935Z,0.30
2022-08-07T20:40:34.776Z,0.30
2022-08-07T20:43:09.449Z,0.32
2022-08-07T20:46:28.565Z,0.40
2022-08-07T20:48:30.971Z,0.30
2022-08-07T20:51:04.107Z,0.40
2022-08-07T20:54:03.370Z,0.40
2022-08-07T20:56:29.193Z,0.30
2022-08-07T20:59:01.507Z,0.40
2022-08-07T21:01:36.545Z,0.38
2022-08-07T21:04:22.409Z,0.30
2022-08-07T21:06:56.652Z,0.30
2022-08-07T21:09:35.590Z,0.40
2022-08-07T21:12:25.976Z,0.55
2022-08-07T21:14:58.672Z,0.40
2022-08-07T21:18:03.949Z,0.50
2022-08-07T21:20:29.497Z,0.43
2022-08-07T21:23:07.638Z,0.60
2022-08-07T21:25:36.131Z,0.47
2022-08-07T21:28:11.046Z,0.45
2022-08-07T21:30:56.552Z,0.35
2022-08-07T21:33:41.789Z,0.47
2022-08-07T21:36:34.728Z,0.40
2022-08-07T21:39:47.036Z,0.60
2022-08-07T21:42:48.467Z,0.35
2022-08-07T21:46:07.895Z,0.40
2022-08-07T21:48:34.376Z,0.40
2022-08-07T21:51:25.859Z,0.40
2022-08-07T21:54:01.197Z,0.38
2022-08-07T21:57:03.334Z,0.68
2022-08-07T22:00:22.202Z,0.40
2022-08-07T22:02:52.416Z,0.43
2022-08-07T22:05:45.530Z,0.50
2022-08-07T22:08:18.955Z,0.43
2022-08-07T22:11:11.144Z,0.40
2022-08-07T22:13:51.848Z,0.40
2022-08-07T22:16:38.695Z,0.40
2022-08-07T22:19:30.475Z,0.50
2022-08-07T22:22:27.620Z,0.60
2022-08-07T22:25:03.263Z,0.70
2022-08-07T22:28:19.771Z,0.70
2022-08-07T22:30:26.582Z,0.60
2022-08-07T22:33:11.299Z,0.90
2022-08-07T22:36:00.822Z,0.70
2022-08-07T22:38:52.606Z,0.70
2022-08-07T22:42:05.858Z,0.50
2022-08-07T22:44:35.558Z,0.55
2022-08-07T22:47:57.307Z,0.60
2022-08-07T22:50:49.164Z,0.65
2022-08-07T22:54:09.192Z,0.50
2022-08-07T22:56:45.894Z,0.50
2022-08-07T22:59:24.882Z,0.50
2022-08-07T23:02:22.339Z,0.50
2022-08-07T23:04:58.548Z,0.57
2022-08-07T23:08:04.843Z,0.60
2022-08-07T23:11:00.064Z,0.50
2022-08-07T23:14:15.329Z,0.57
2022-08-07T23:17:19.887Z,0.50
2022-08-07T23:20:15.014Z,0.50
2022-08-07T23:24:06.671Z,0.60
2022-08-07T23:26:18.291Z,0.47
2022-08-07T23:29:01.817Z,0.55
2022-08-07T23:32:48.939Z,0.50
2022-08-07T23:34:44.936Z,0.50
2022-08-07T23:37:20.422Z,0.80
2022-08-07T23:40:26.116Z,0.60
2022-08-07T23:43:18.202Z,0.55
2022-08-07T23:46:02.940Z,0.60
2022-08-07T23:48:49.621Z,0.65
2022-08-07T23:52:58.009Z,0.80
2022-08-07T23:54:52.051Z,0.93
2022-08-07T23:57:27.729Z,0.60
